Airfield :
LOGIN :

Register | Disclaimer

   EN    FR    IT 

 










Legend :    VFR   Marginal VFR   IFR   Intensive IFR   Very Intensive IFR
Visi :
Ceiling :
>= 8 km
>= 3000ft
5 to 8 km
1000 to 3000 ft
1500m to 5 km
500 to 1000 ft
800 to 1500m
200 to 500 ft
< 800m
< 200 ft
Symbols :   Thunderstorms  Fog  Heavy snow  Heavy precipitations  Wind > 20 kt
SIGMETs :     Misc.  Thunderstorms  Icing  Turbulence  Mountain Waves  Volcanic Ashes






- Airport Elevation : 782 ft
- IATA code : BGY


LIME - Orio al Serio International - Bergamo

CURRENT METAR :
  • 070520Z 15007KT 9999 FEW020 SCT060 21/17 Q1014 NOSIG

EXPIRED METARs :
  • 070450Z VRB06KT 9999 SCT060 21/12 Q1013 NOSIG
  • 070420Z 02003KT 9999 FEW030 20/09 Q1013 NOSIG
  • 070350Z VRB02KT CAVOK 21/09 Q1012 NOSIG
  • 070320Z 04003KT 010V150 9999 SCT050 20/10 Q1011 NOSIG
  • 070250Z VRB02KT CAVOK 21/08 Q1010 NOSIG
  • 070220Z 36005KT 320V040 CAVOK 21/09 Q1010 NOSIG

TAF TAF LIME
Valid from the 07 at 00:00 until the 08 at 00:00 UTC


062300Z 0700/0724 02008KT 9999 SCT030
BECMG 0703/0706 10010KT
BECMG 0716/0718 VRB05KT



MET'MAP, your aeronautical weather chart ! - Copyright ORBIFLY December 2007 - Disclaimer

ORBIFLY MET'MAP TEAM :

Programming & Development : Alexandra Zaïnal
Concept & original design : Baudouin d'Aumeries
Assistance for programming : Marc-Olivier Méhu
Technical & hardware support : Manuel Goepfert

Contact : metmap@orbifly.com




SOURCES & CREDITS :

   NOAA